Ardenvoir, Washington
Current Conditions -  °F | °C
As of 2:55 AM on Sunday 23 Nov 2014 (Local Time) from KEAT Reporting Station
Clear Clear  
Wind Chill: 31°   Ceiling: Unl
Heat Index: 36°   Visibility: 10mi
Dew Point: 29°   Wind: 6mph
Humidity: 76%   Direction: 90°E
Pressure: 30.08"   Gusts: NA
Location:  47.74°N, 120.37°W
Report Text: KEAT 231055Z AUTO 09005KT 10SM CLR 02/M02 A3008 RMK AO2 SLP194 T00221017
Loading
Personal Weather Stations






























Interactive Weather Map New forecast layout! Learn more

10-Day Weather Forecast

Advertisements
Track Severe Weather on mobile